Flight Track Log - Related Links

Times and Time Zones

All times are in EDT time to prevent confusion due to time zone crossing. See the ACA990 flight status page for this flight to view local times or setup timezone preferences in your user account.

Time Position Orientation Groundspeed Altitude Reporting Facility
EDT Latitude Longitude Course Direction KTS MPH feet Rate Location/Type
Mon 02:54:00 AM 19.9262 -98.8321 25° Northeast  Level FlightAware Approximate
Mon 02:55:00 AM 20.0486 -98.7718 25° Northeast  Level FlightAware Approximate
Mon 02:56:00 AM 20.1710 -98.7115 25° Northeast  Level FlightAware Approximate
Mon 02:57:00 AM 20.2934 -98.6511 25° Northeast  Level FlightAware Approximate
Mon 02:58:00 AM 20.4157 -98.5906 25° Northeast  Level FlightAware Approximate
Mon 02:59:00 AM 20.5381 -98.5299 25° Northeast  Level FlightAware Approximate
Mon 03:00:00 AM 20.6604 -98.4692 25° Northeast  Level FlightAware Approximate
Mon 03:01:00 AM 20.7827 -98.4084 25° Northeast  Level FlightAware Approximate
Mon 03:02:00 AM 20.9050 -98.3475 25° Northeast  Level FlightAware Approximate
Mon 03:03:00 AM 21.0272 -98.2865 25° Northeast  Level FlightAware Approximate
Mon 03:04:00 AM 21.1495 -98.2254 25° Northeast  Level FlightAware Approximate
Mon 03:05:00 AM 21.2717 -98.1642 25° Northeast  Level FlightAware Approximate
Mon 03:06:00 AM 21.3801 -98.1112 24° Northeast  Level FlightAware Approximate
Mon 03:07:00 AM 21.5028 -98.0511 24° Northeast  Level FlightAware Approximate
Mon 03:08:00 AM 21.6255 -97.9909 25° Northeast  Level FlightAware Approximate
Mon 03:09:00 AM 21.7482 -97.9306 25° Northeast  Level FlightAware Approximate
Mon 03:10:00 AM 21.8709 -97.8702 25° Northeast  Level FlightAware Approximate
Mon 03:11:00 AM 21.9935 -97.8097 25° Northeast  Level FlightAware Approximate
Mon 03:12:00 AM 22.1161 -97.7491 25° Northeast  Level FlightAware Approximate
Mon 03:13:00 AM 22.2387 -97.6883 25° Northeast  Level FlightAware Approximate
Mon 03:14:00 AM 22.3613 -97.6275 25° Northeast  Level FlightAware Approximate
Mon 03:15:00 AM 22.4838 -97.5666 25° Northeast  Level FlightAware Approximate
Mon 03:16:00 AM 22.6064 -97.5055 25° Northeast  Level FlightAware Approximate
Mon 03:17:00 AM 22.7289 -97.4444 25° Northeast  Level FlightAware Approximate
Mon 03:18:00 AM 22.8514 -97.3831 25° Northeast  Level FlightAware Approximate
Mon 03:19:00 AM 22.9738 -97.3218 25° Northeast  Level FlightAware Approximate
Mon 03:20:00 AM 23.0962 -97.2603 25° Northeast  Level FlightAware Approximate
Mon 03:21:00 AM 23.2188 -97.1990 25° Northeast  Level FlightAware Approximate
Mon 03:22:00 AM 23.3373 -97.1295 32° Northeast  Level FlightAware Approximate
Mon 03:23:00 AM 23.4512 -97.0508 32° Northeast  Level FlightAware Approximate
Mon 03:24:00 AM 23.5651 -96.9720 32° Northeast  Level FlightAware Approximate
Mon 03:25:00 AM 23.6789 -96.8931 32° Northeast  Level FlightAware Approximate
Mon 03:26:00 AM 23.7927 -96.8140 32° Northeast  Level FlightAware Approximate
Mon 03:27:00 AM 23.9065 -96.7347 32° Northeast  Level FlightAware Approximate
Mon 03:28:00 AM 24.0202 -96.6554 33° Northeast  Level FlightAware Approximate
Mon 03:29:00 AM 24.1339 -96.5759 33° Northeast  Level FlightAware Approximate
Mon 03:30:00 AM 24.2475 -96.4962 33° Northeast  Level FlightAware Approximate
Mon 03:31:00 AM 24.3611 -96.4165 33° Northeast  Level FlightAware Approximate
Mon 03:32:00 AM 24.4746 -96.3365 33° Northeast  Level FlightAware Approximate
Mon 03:33:00 AM 24.5881 -96.2564 33° Northeast  Level FlightAware Approximate
Mon 03:34:00 AM 24.7016 -96.1762 33° Northeast  Level FlightAware Approximate
Mon 03:35:00 AM 24.8150 -96.0959 33° Northeast  Level FlightAware Approximate
Mon 03:36:00 AM 24.9284 -96.0154 33° Northeast  Level FlightAware Approximate
Mon 03:37:00 AM 25.0414 -95.9341 33° Northeast  Level FlightAware Approximate
Mon 03:38:00 AM 25.1543 -95.8526 33° Northeast  Level FlightAware Approximate
Mon 03:39:00 AM 25.2671 -95.7709 33° Northeast  Level FlightAware Approximate
Mon 03:40:00 AM 25.3799 -95.6891 33° Northeast  Level FlightAware Approximate
Mon 03:41:00 AM 25.4926 -95.6071 33° Northeast  Level FlightAware Approximate
Mon 03:41:24 AM 25.0433 -95.8503 45° Northeast 512 589 34,900  Level Houston Center
Mon 03:42:00 AM 25.6053 -95.5249 33° Northeast  Level FlightAware Approximate
Mon 03:42:24 AM 25.1642 -95.7803 28° Northeast 507 583 35,200  Level Houston Center
Mon 03:43:00 AM 25.7003 -95.4192 46° Northeast  Level FlightAware Approximate
Mon 03:43:24 AM 25.2861 -95.7097 28° Northeast 505 581 36,100  Level Houston Center
Mon 03:44:00 AM 25.7959 -95.3136 45° Northeast  Level FlightAware Approximate
Mon 03:44:24 AM 25.4119 -95.6353 28° Northeast 504 580 36,900  Level Houston Center
Mon 03:45:00 AM 25.8910 -95.2074 45° Northeast  Level FlightAware Approximate
Mon 03:45:24 AM 25.5389 -95.5600 28° Northeast 508 585 37,000  Level Houston Center
Mon 03:46:00 AM 25.9861 -95.1010 45° Northeast  Level FlightAware Approximate
Mon 03:46:24 AM 25.6497 -95.4742 35° Northeast 504 580 37,000  Level Houston Center
Mon 03:47:25 AM 25.7656 -95.3550 43° Northeast 534 615 37,000 -50 Level Houston Center
Mon 03:48:25 AM 25.8542 -95.2550 45° Northeast 528 608 36,900 -50 Descending Houston Center
Mon 03:49:25 AM 25.9542 -95.1439 45° Northeast 518 596 36,900 50 Level Houston Center
Mon 03:50:25 AM 26.0517 -95.0353 45° Northeast 504 580 37,000  Climbing Houston Center
Mon 03:51:25 AM 26.1497 -94.9236 46° Northeast 503 579 36,900 -50 Descending Houston Center
Mon 03:52:25 AM 26.2497 -94.8131 45° Northeast 505 581 36,900 50 Level Houston Center
Mon 03:53:25 AM 26.3514 -94.6975 46° Northeast 513 590 37,000 50 Climbing Houston Center
Mon 03:54:26 AM 26.4594 -94.5758 45° Northeast 510 587 37,000  Level Houston Center
Mon 03:55:26 AM 26.5611 -94.4617 45° Northeast 516 594 37,000 -700 Level Houston Center
Mon 03:56:26 AM 26.6617 -94.3453 46° Northeast 519 597 35,600 -1,450 Descending Houston Center
Mon 03:57:26 AM 26.7619 -94.2319 45° Northeast 515 593 34,100 -1,300 Descending Houston Center
Mon 03:58:26 AM 26.8633 -94.1164 45° Northeast 521 600 33,000 -550 Descending Houston Center
Mon 03:59:26 AM 26.9667 -93.9981 46° Northeast 529 609 33,000  Level Houston Center
Mon 04:00:26 AM 27.0694 -93.8800 46° Northeast 531 611 33,000  Level Houston Center
Mon 04:01:27 AM 27.1728 -93.7642 45° Northeast 528 608 33,000  Level Houston Center
Mon 04:02:27 AM 27.2897 -93.6703 36° Northeast 518 596 33,000  Level Houston Center
Mon 04:03:27 AM 27.4064 -93.5728 37° Northeast 523 602 33,000  Level Houston Center
Mon 04:04:27 AM 27.5239 -93.4747 36° Northeast 525 604 33,000  Level Houston Center
Mon 04:05:27 AM 27.6422 -93.3778 36° Northeast 528 608 33,000  Level Houston Center
Mon 04:06:27 AM 27.7581 -93.2808 37° Northeast 523 602 33,000 -50 Level Houston Center
Mon 04:07:28 AM 27.8900 -93.1733 36° Northeast 518 596 32,900 -149 Descending Houston Center
Mon 04:08:28 AM 28.0058 -93.0769 36° Northeast 518 596 32,700 -650 Descending Houston Center
Mon 04:09:28 AM 28.1186 -92.9853 36° Northeast 506 582 31,600 -900 Descending Houston Center
Mon 04:10:28 AM 28.2314 -92.8900 37° Northeast 505 581 30,900 -300 Descending Houston Center
Mon 04:11:28 AM 28.3444 -92.7947 37° Northeast 508 585 31,000 50 Climbing Houston Center
Mon 04:12:28 AM 28.4583 -92.7017 36° Northeast 507 583 31,000  Level Houston Center
Mon 04:13:29 AM 28.5719 -92.6044 37° Northeast 511 588 31,000 -50 Level Houston Center
Mon 04:14:29 AM 28.6856 -92.5108 36° Northeast 508 585 30,900 -50 Descending Houston Center
Mon 04:15:29 AM 28.8000 -92.4142 36° Northeast 511 588 30,900 50 Level Houston Center
Mon 04:16:29 AM 28.9183 -92.3233 34° Northeast 513 590 31,000 50 Climbing Houston Center
Mon 04:17:29 AM 29.0367 -92.2361 33° Northeast 508 585 31,000  Level Houston Center
Mon 04:18:30 AM 29.1550 -92.1411 35° Northeast 515 593 31,000  Level Houston Center
Mon 04:19:30 AM 29.2717 -92.0442 36° Northeast 519 597 31,000  Level Houston Center
Mon 04:20:30 AM 29.3894 -91.9469 36° Northeast 522 601 31,000  Level Houston Center
Mon 04:21:30 AM 29.5031 -91.8494 37° Northeast 517 595 31,000 -50 Level Houston Center
Mon 04:22:30 AM 29.6175 -91.7506 37° Northeast 516 594 30,900  Descending Houston Center
Mon 04:23:30 AM 29.7253 -91.6583 37° Northeast 517 595 31,000 50 Climbing Houston Center
Mon 04:24:31 AM 29.8394 -91.5581 37° Northeast 516 594 31,000 198 Level Houston Center
Mon 04:25:31 AM 29.9550 -91.4575 37° Northeast 520 598 31,400 650 Climbing Houston Center
Mon 04:26:31 AM 30.0742 -91.3531 37° Northeast 534 615 32,300 950 Climbing Houston Center
Mon 04:27:31 AM 30.1928 -91.2494 37° Northeast 535 616 33,300 900 Climbing Houston Center
Mon 04:28:31 AM 30.3114 -91.1444 37° Northeast 535 616 34,100 843 Climbing Houston Center
Mon 04:29:32 AM 30.4319 -91.0392 37° Northeast 539 620 35,000 446 Climbing Houston Center
Mon 04:30:32 AM 30.5522 -90.9344 37° Northeast 539 620 35,000  Level Houston Center
Mon 04:31:32 AM 30.6733 -90.8281 37° Northeast 543 625 35,000  Level Houston Center
Mon 04:32:32 AM 30.7933 -90.7211 37° Northeast 543 625 35,000  Level Houston Center
Mon 04:33:32 AM 30.9139 -90.6139 37° Northeast 543 625 35,000  Level Houston Center
Mon 04:34:33 AM 31.0347 -90.5053 38° Northeast 546 628 35,000  Level Houston Center
Mon 04:35:33 AM 31.1533 -90.3972 38° Northeast 541 623 35,000  Level Houston Center
Mon 04:36:33 AM 31.2708 -90.2894 38° Northeast 538 619 35,000 -50 Level Houston Center
Mon 04:37:33 AM 31.3889 -90.1831 38° Northeast 535 616 34,900  Descending Houston Center
Mon 04:38:33 AM 31.5075 -90.0764 37° Northeast 535 616 35,000 50 Climbing Houston Center
Mon 04:39:34 AM 31.6256 -89.9678 38° Northeast 537 618 35,000  Level Houston Center
Mon 04:39:56 AM 31.6711 -89.9206 41° Northeast 533 613 35,000  Level Memphis Center
Mon 04:40:56 AM 31.7897 -89.8172 37° Northeast 533 613 35,000  Level Memphis Center
Mon 04:41:56 AM 31.9083 -89.7064 38° Northeast 538 619 35,000  Level Memphis Center
Mon 04:42:56 AM 32.0267 -89.5978 38° Northeast 538 619 35,000  Level Memphis Center
Mon 04:43:56 AM 32.1469 -89.4889 37° Northeast 538 619 35,000  Level Memphis Center
Mon 04:44:56 AM 32.2631 -89.3794 39° Northeast 533 613 35,000  Level Memphis Center
Mon 04:45:56 AM 32.3833 -89.2700 38° Northeast 533 613 35,000  Level Memphis Center
Mon 04:46:56 AM 32.5011 -89.1603 38° Northeast 533 613 35,000  Level Memphis Center
Mon 04:47:56 AM 32.6192 -89.0525 38° Northeast 533 613 35,000  Level Memphis Center
Mon 04:48:56 AM 32.7389 -88.9397 38° Northeast 538 619 35,000  Level Memphis Center
Mon 04:49:56 AM 32.8689 -88.8189 38° Northeast 538 619 35,000  Level Memphis Center
Mon 04:50:56 AM 32.9867 -88.7078 38° Northeast 538 619 35,000  Level Memphis Center
Mon 04:51:56 AM 33.1061 -88.5964 38° Northeast 539 620 35,000  Level Memphis Center
Mon 04:52:56 AM 33.2194 -88.4875 39° Northeast 534 615 35,000  Level Memphis Center
Mon 04:53:56 AM 33.3367 -88.3756 39° Northeast 534 615 35,000  Level Memphis Center
Mon 04:54:56 AM 33.4517 -88.2658 39° Northeast 534 615 35,000  Level Memphis Center
Mon 04:55:56 AM 33.5522 -88.1636 40° Northeast 534 615 35,000  Level Memphis Center
Mon 04:56:56 AM 33.6669 -88.0536 39° Northeast 534 615 35,000  Level Memphis Center
Mon 04:57:56 AM 33.7819 -87.9431 39° Northeast 529 609 35,000  Level Memphis Center
Mon 04:58:56 AM 33.9150 -87.8142 39° Northeast 539 620 35,000  Level Memphis Center
Mon 04:59:56 AM 34.0233 -87.7056 40° Northeast 531 611 35,000  Level Memphis Center
Mon 05:00:56 AM 34.1397 -87.5942 38° Northeast 526 605 35,000  Level Memphis Center
Mon 05:01:56 AM 34.2519 -87.4825 39° Northeast 526 605 35,000  Level Memphis Center
Mon 05:02:56 AM 34.3622 -87.3731 39° Northeast 520 598 35,000  Level Memphis Center
Mon 05:03:43 AM 34.4483 -87.2883 39° Northeast 510 587 35,000  Level Atlanta Center
Mon 05:04:43 AM 34.5597 -87.1789 39° Northeast 510 587 35,000  Level Atlanta Center
Mon 05:05:43 AM 34.6689 -87.0719 39° Northeast 510 587 35,000  Level Atlanta Center
Mon 05:06:43 AM 34.7803 -86.9597 40° Northeast 510 587 35,000  Level Atlanta Center
Mon 05:07:43 AM 34.8911 -86.8497 39° Northeast 510 587 35,000  Level Atlanta Center
Mon 05:08:32 AM 34.9925 -86.7500 39° Northeast 514 592 35,000  Level Memphis Center
Mon 05:09:32 AM 35.0917 -86.6469 40° Northeast 498 573 35,000  Level Memphis Center
Mon 05:10:32 AM 35.2008 -86.5353 40° Northeast 498 573 35,000  Level Memphis Center
Mon 05:11:32 AM 35.3100 -86.4261 39° Northeast 511 588 35,000  Level Memphis Center
Mon 05:12:32 AM 35.4169 -86.3139 41° Northeast 506 582 35,000 -50 Level Memphis Center
Mon 05:13:32 AM 35.5239 -86.2067 39° Northeast 511 588 34,900  Descending Memphis Center
Mon 05:14:32 AM 35.6289 -86.0992 40° Northeast 506 582 35,000 50 Climbing Memphis Center
Mon 05:15:32 AM 35.7256 -85.9997 40° Northeast 506 582 35,000  Level Memphis Center
Mon 05:16:32 AM 35.8300 -85.8917 40° Northeast 501 577 35,000  Level Memphis Center
Mon 05:17:32 AM 35.9425 -85.7753 40° Northeast 494 568 35,000  Level Memphis Center
Mon 05:19:46 AM 36.1728 -85.5361 40° Northeast 496 571 35,000  Level Indianapolis Center
Mon 05:20:46 AM 36.2794 -85.4242 40° Northeast 498 573 35,000  Level Indianapolis Center
Mon 05:21:46 AM 36.3850 -85.3136 40° Northeast 494 568 35,000  Level Indianapolis Center
Mon 05:22:46 AM 36.4897 -85.2017 41° Northeast 493 567 35,000  Level Indianapolis Center
Mon 05:23:46 AM 36.5958 -85.0894 40° Northeast 497 572 35,000  Level Indianapolis Center
Mon 05:24:47 AM 36.7031 -84.9756 40° Northeast 503 579 35,000  Level Indianapolis Center
Mon 05:25:47 AM 36.8078 -84.8653 40° Northeast 493 567 35,000  Level Indianapolis Center
Mon 05:26:47 AM 36.9128 -84.7506 41° Northeast 500 575 35,000  Level Indianapolis Center
Mon 05:27:47 AM 37.0181 -84.6386 40° Northeast 497 572 35,000  Level Indianapolis Center
Mon 05:28:47 AM 37.1169 -84.5308 41° Northeast 497 572 35,000  Level Indianapolis Center
Mon 05:29:48 AM 37.2233 -84.4153 41° Northeast 505 581 35,000  Level Indianapolis Center
Mon 05:30:48 AM 37.3292 -84.3017 40° Northeast 502 578 35,000  Level Indianapolis Center
Mon 05:31:48 AM 37.4356 -84.1861 41° Northeast 502 578 35,000  Level Indianapolis Center
Mon 05:32:48 AM 37.5436 -84.0681 41° Northeast 511 588 35,000  Level Indianapolis Center
Mon 05:33:48 AM 37.6494 -83.9531 41° Northeast 504 580 35,000  Level Indianapolis Center
Mon 05:34:49 AM 37.7550 -83.8347 42° Northeast 507 583 35,000  Level Indianapolis Center
Mon 05:35:49 AM 37.8597 -83.7172 42° Northeast 505 581 35,000  Level Indianapolis Center
Mon 05:36:49 AM 37.9650 -83.5997 41° Northeast 504 580 35,000  Level Indianapolis Center
Mon 05:37:49 AM 38.0683 -83.4819 42° Northeast 498 573 35,000  Level Indianapolis Center
Mon 05:38:50 AM 38.1731 -83.3644 41° Northeast 505 581 35,000  Level Indianapolis Center
Mon 05:39:50 AM 38.2781 -83.2472 41° Northeast 501 577 35,000  Level Indianapolis Center
Mon 05:40:50 AM 38.3822 -83.1286 42° Northeast 501 577 35,000  Level Indianapolis Center
Mon 05:41:50 AM 38.4881 -83.0103 41° Northeast 503 579 35,000  Level Indianapolis Center
Mon 05:42:51 AM 38.5922 -82.8903 42° Northeast 505 581 35,000  Level Indianapolis Center
Mon 05:43:51 AM 38.6933 -82.7728 42° Northeast 507 583 35,000  Level Indianapolis Center
Mon 05:44:51 AM 38.7983 -82.6522 42° Northeast 504 580 35,000  Level Indianapolis Center
Mon 05:45:51 AM 38.9039 -82.5317 42° Northeast 506 582 35,000  Level Indianapolis Center
Mon 05:46:52 AM 39.0097 -82.4089 42° Northeast 508 585 35,000  Level Indianapolis Center
Mon 05:47:52 AM 39.1144 -82.2864 42° Northeast 508 585 35,000  Level Indianapolis Center
Mon 05:48:52 AM 39.2211 -82.1622 42° Northeast 512 589 35,000  Level Indianapolis Center
Mon 05:49:53 AM 39.3275 -82.0383 42° Northeast 512 589 35,000  Level Indianapolis Center
Mon 05:50:53 AM 39.4317 -81.9131 43° Northeast 509 586 35,000  Level Indianapolis Center
Mon 05:51:53 AM 39.5369 -81.7878 43° Northeast 509 586 35,000  Level Indianapolis Center
Mon 05:52:54 AM 39.6411 -81.6631 43° Northeast 509 586 35,000  Level Indianapolis Center
Mon 05:53:45 AM 39.7314 -81.5711 38° Northeast 504 580 35,000  Level Cleveland Center
Mon 05:54:45 AM 39.8425 -81.4833 31° Northeast 488 562 35,000  Level Cleveland Center
Mon 05:55:45 AM 39.9664 -81.3847 31° Northeast 499 574 35,000  Level Cleveland Center
Mon 05:56:45 AM 40.0817 -81.2939 31° Northeast 499 574 35,000  Level Cleveland Center
Mon 05:57:45 AM 40.1989 -81.2000 31° Northeast 494 568 35,000  Level Cleveland Center
Mon 05:58:45 AM 40.3139 -81.1031 33° Northeast 494 568 35,000  Level Cleveland Center
Mon 05:59:45 AM 40.4311 -81.0086 32° Northeast 494 568 35,000  Level Cleveland Center
Mon 06:00:45 AM 40.5461 -80.9136 32° Northeast 494 568 35,000  Level Cleveland Center
Mon 06:01:45 AM 40.6631 -80.8211 31° Northeast 494 568 35,000  Level Cleveland Center
Mon 06:02:45 AM 40.7781 -80.7256 32° Northeast 489 563 35,000  Level Cleveland Center
Mon 06:03:45 AM 40.8969 -80.6297 31° Northeast 490 564 35,000 -250 Level Cleveland Center
Mon 06:04:45 AM 41.0136 -80.5336 32° Northeast 490 564 34,500 -500 Descending Cleveland Center
Mon 06:05:45 AM 41.1406 -80.4314 31° Northeast 490 564 34,000 -250 Descending Cleveland Center
Mon 06:06:45 AM 41.2467 -80.3372 34° Northeast 499 574 34,000  Level Cleveland Center
Mon 06:07:45 AM 41.3653 -80.2372 32° Northeast 499 574 34,000  Level Cleveland Center
Mon 06:08:45 AM 41.4839 -80.1397 32° Northeast 499 574 34,000  Level Cleveland Center
Mon 06:09:45 AM 41.6022 -80.0389 32° Northeast 499 574 34,000  Level Cleveland Center
Mon 06:10:45 AM 41.7289 -79.9322 32° Northeast 499 574 34,000 -250 Level Cleveland Center
Mon 06:11:45 AM 41.8514 -79.8528 26° Northeast 488 562 33,500 -700 Descending Cleveland Center
Mon 06:12:45 AM 41.9656 -79.7928 21° North 488 562 32,600 -950 Descending Cleveland Center
Mon 06:13:45 AM 42.0944 -79.7242 22° Northeast 488 562 31,600 -1,000 Descending Cleveland Center
Mon 06:14:45 AM 42.2231 -79.6522 22° Northeast 488 562 30,600 -1,000 Descending Cleveland Center
Mon 06:15:45 AM 42.3517 -79.5775 23° Northeast 493 567 29,600 -1,000 Descending Cleveland Center
Mon 06:16:45 AM 42.4761 -79.5078 22° Northeast 493 567 28,600 -1,000 Descending Cleveland Center
Mon 06:17:45 AM 42.6047 -79.4381 22° Northeast 493 567 27,600 -1,550 Descending Cleveland Center
Mon 06:18:45 AM 42.7314 -79.4072 10° North 488 562 25,500 -2,700 Descending Cleveland Center
Mon 06:19:45 AM 42.8583 -79.3964 North 464 534 22,200 -3,556 Descending Cleveland Center
Mon 06:20:06 AM 42.9000 -79.3667 28° Northeast 450 518 20,700 -3,333 Descending Toronto Center
Mon 06:21:06 AM 43.0167 -79.3667 360° North 420 483 17,700 -2,800 Descending Toronto Center
Mon 06:22:06 AM 43.1333 -79.3667 360° North 400 460 15,100 -2,650 Descending Toronto Center
Mon 06:23:06 AM 43.2333 -79.3333 14° North 370 426 12,400 -1,550 Descending Toronto Center
Mon 06:24:06 AM 43.3167 -79.3500 352° North 340 391 12,000 -750 Descending Toronto Center
Mon 06:25:06 AM 43.3833 -79.4000 331° Northwest 280 322 10,900 -1,350 Descending Toronto Center
Mon 06:26:06 AM 43.4500 -79.4500 331° Northwest 260 299 9,300 -1,450 Descending Toronto Center
Mon 06:27:06 AM 43.5167 -79.4667 350° North 260 299 8,000 -850 Descending Toronto Center
Mon 06:28:06 AM 43.5833 -79.5167 331° Northwest 250 288 7,600 -800 Descending Toronto Center
Mon 06:29:06 AM 43.6333 -79.4667 36° Northeast 240 276 6,400 -1,200 Descending Toronto Center
Mon 06:30:06 AM 43.6833 -79.4000 44° Northeast 240 276 5,200 -1,100 Descending Toronto Center
Mon 06:31:06 AM 43.7333 -79.3333 44° Northeast 230 265 4,200 -850 Descending Toronto Center
Mon 06:32:06 AM 43.7667 -79.3833 313° West 180 207 3,500 -600 Descending Toronto Center
Mon 06:33:06 AM 43.7500 -79.4500 251° West 180 207 3,000 -750 Descending Toronto Center
Mon 06:34:06 AM 43.7167 -79.5000 227° Southwest 190 219 2,000 -1,000 Descending Toronto Center

Login

Don't have an account? Register now (free) for customized features, flight alerts, and more!